createdAt,value
2018-04-28T00:02:06.515Z,66.44
2018-04-28T00:07:08.970Z,67.07
2018-04-28T00:12:11.437Z,67.63
2018-04-28T00:17:17.425Z,68.08
2018-04-28T00:22:23.654Z,68.61
2018-04-28T00:27:33.912Z,69.25
2018-04-28T00:32:37.265Z,69.08
2018-04-28T00:37:47.639Z,69.60
2018-04-28T00:43:08.817Z,69.78
2018-04-28T00:48:23.679Z,69.91
2018-04-28T00:53:26.156Z,70.49
2018-04-28T01:03:58.163Z,71.09
2018-04-28T01:09:00.776Z,71.45
2018-04-28T01:19:37.162Z,71.60
2018-04-28T01:24:40.533Z,72.02
2018-04-28T01:35:17.888Z,72.19
2018-04-28T01:40:22.198Z,72.57
2018-04-28T01:45:42.234Z,72.57
2018-04-28T01:50:58.691Z,72.73
2018-04-28T01:56:09.926Z,72.81
2018-04-28T02:07:01.146Z,73.39
2018-04-28T02:12:12.295Z,73.70
2018-04-28T02:17:14.793Z,73.72
2018-04-28T02:22:37.019Z,74.15
2018-04-28T02:27:46.172Z,73.93
2018-04-28T02:32:57.099Z,74.20
2018-04-28T02:38:01.995Z,73.79
2018-04-28T02:43:06.218Z,73.89
2018-04-28T02:48:14.640Z,74.09
2018-04-28T02:58:56.741Z,74.54
2018-04-28T03:04:02.009Z,74.62
2018-04-28T03:09:05.331Z,74.60
2018-04-28T03:14:07.837Z,74.64
2018-04-28T03:19:12.703Z,74.73
2018-04-28T03:24:29.344Z,75.08
2018-04-28T03:29:34.747Z,75.13
2018-04-28T03:34:40.042Z,74.91
2018-04-28T03:39:45.146Z,75.00
2018-04-28T03:44:50.011Z,75.21
2018-04-28T03:49:52.464Z,75.35
2018-04-28T03:54:55.679Z,75.34
2018-04-28T04:00:10.083Z,75.18
2018-04-28T04:05:15.540Z,74.59
2018-04-28T04:10:31.881Z,73.27
2018-04-28T04:15:41.182Z,72.18
2018-04-28T04:20:52.459Z,70.46
2018-04-28T04:26:13.818Z,69.72
2018-04-28T04:31:19.922Z,68.52
2018-04-28T04:42:03.477Z,64.58
2018-04-28T04:53:21.604Z,60.15
2018-04-28T05:03:57.280Z,40.44
2018-04-28T05:09:39.331Z,38.12
2018-04-28T05:14:53.860Z,33.93
2018-04-28T05:20:08.321Z,38.57
2018-04-28T05:25:33.133Z,34.29
2018-04-28T05:30:36.591Z,32.26
2018-04-28T05:36:00.925Z,36.99
2018-04-28T05:41:15.373Z,41.88
2018-04-28T05:52:15.423Z,42.34
2018-04-28T05:57:36.648Z,42.62
2018-04-28T06:02:59.657Z,34.24
2018-04-28T06:13:45.946Z,32.04
2018-04-28T06:18:52.021Z,38.42
2018-04-28T06:23:54.525Z,39.62
2018-04-28T06:28:57.061Z,41.23
2018-04-28T06:33:59.548Z,41.25
2018-04-28T06:39:02.032Z,41.97
2018-04-28T06:44:04.551Z,42.49
2018-04-28T06:49:07.036Z,43.09
2018-04-28T06:54:09.522Z,43.38
2018-04-28T06:59:11.998Z,41.73
2018-04-28T07:04:14.508Z,40.95
2018-04-28T07:09:16.987Z,39.14
2018-04-28T07:14:19.440Z,39.59
2018-04-28T07:19:21.971Z,40.52
2018-04-28T07:24:24.489Z,39.15
2018-04-28T07:29:27.913Z,39.56
2018-04-28T07:34:30.535Z,41.22
2018-04-28T07:39:33.035Z,40.27
2018-04-28T07:44:35.602Z,40.54
2018-04-28T07:49:38.121Z,40.50
2018-04-28T07:54:40.598Z,40.79
2018-04-28T07:59:43.070Z,40.98
2018-04-28T08:04:45.545Z,41.16
2018-04-28T08:09:48.052Z,40.84
2018-04-28T08:14:50.512Z,41.05
2018-04-28T08:19:53.019Z,41.74
2018-04-28T08:24:55.486Z,40.91
2018-04-28T08:29:58.027Z,41.07
2018-04-28T08:35:00.569Z,39.17
2018-04-28T08:40:03.144Z,39.97
2018-04-28T08:45:06.029Z,36.99
2018-04-28T08:50:08.573Z,32.38
2018-04-28T08:55:11.183Z,32.32
2018-04-28T09:00:25.629Z,29.23
2018-04-28T09:05:28.150Z,24.79
2018-04-28T09:10:30.855Z,24.61
2018-04-28T09:15:33.570Z,22.17
2018-04-28T09:20:36.140Z,22.42
2018-04-28T09:25:38.613Z,24.04
2018-04-28T09:30:41.082Z,22.29
2018-04-28T09:35:43.601Z,20.00
2018-04-28T09:40:46.094Z,21.04
2018-04-28T09:45:48.571Z,21.50
2018-04-28T09:50:51.060Z,21.61
2018-04-28T09:55:53.788Z,21.85
2018-04-28T10:00:56.361Z,21.43
2018-04-28T10:05:58.900Z,21.12
2018-04-28T10:11:01.350Z,21.90
2018-04-28T10:16:04.048Z,21.32
2018-04-28T10:21:06.645Z,22.74
2018-04-28T10:26:09.180Z,22.46
2018-04-28T10:31:11.653Z,24.07
2018-04-28T10:36:14.215Z,22.29
2018-04-28T10:41:16.703Z,23.74
2018-04-28T10:46:19.191Z,23.21
2018-04-28T10:51:21.689Z,25.48
2018-04-28T10:56:24.176Z,25.04
2018-04-28T11:01:26.773Z,24.23
2018-04-28T11:06:29.320Z,25.96
2018-04-28T11:11:31.841Z,24.05
2018-04-28T11:16:34.345Z,23.53
2018-04-28T11:21:36.862Z,23.29
2018-04-28T11:26:39.326Z,24.06
2018-04-28T11:31:41.872Z,24.37
2018-04-28T11:36:44.362Z,25.59
2018-04-28T11:41:46.828Z,25.32
2018-04-28T11:46:49.315Z,23.11
2018-04-28T11:51:51.847Z,24.53
2018-04-28T11:56:54.279Z,25.44
2018-04-28T12:01:56.789Z,24.84
2018-04-28T12:06:59.500Z,23.37
2018-04-28T12:12:02.037Z,24.68
2018-04-28T12:17:04.749Z,24.58
2018-04-28T12:22:07.204Z,24.86
2018-04-28T12:27:09.680Z,25.08
2018-04-28T12:32:12.133Z,24.98
2018-04-28T12:37:14.613Z,25.23
2018-04-28T12:42:17.086Z,23.36
2018-04-28T12:47:19.604Z,24.04
2018-04-28T12:52:22.073Z,24.57
2018-04-28T12:57:24.545Z,23.24
2018-04-28T13:02:27.081Z,22.14
2018-04-28T13:07:29.904Z,22.81
2018-04-28T13:12:32.459Z,22.65
2018-04-28T13:17:34.981Z,22.66
2018-04-28T13:22:37.486Z,22.23
2018-04-28T13:27:39.985Z,21.95
2018-04-28T13:32:42.449Z,23.06
2018-04-28T13:37:44.949Z,22.34
2018-04-28T13:42:47.426Z,21.21
2018-04-28T13:47:49.893Z,22.97
2018-04-28T13:52:52.452Z,23.52
2018-04-28T13:57:54.940Z,23.06
2018-04-28T14:02:57.442Z,23.56
2018-04-28T14:07:59.972Z,22.35
2018-04-28T14:13:02.503Z,23.46
2018-04-28T14:18:05.024Z,22.25
2018-04-28T14:23:07.548Z,23.20
2018-04-28T14:28:10.034Z,22.17
2018-04-28T14:33:12.512Z,22.55
2018-04-28T14:38:15.006Z,23.56
2018-04-28T14:43:17.518Z,23.33
2018-04-28T14:48:20.252Z,22.72
2018-04-28T14:53:22.736Z,22.62
2018-04-28T14:58:25.184Z,22.53
2018-04-28T15:03:27.667Z,22.49
2018-04-28T15:08:30.153Z,21.83
2018-04-28T15:13:32.706Z,22.73
2018-04-28T15:18:35.157Z,22.67
2018-04-28T15:23:37.629Z,21.43
2018-04-28T15:28:40.224Z,20.61
2018-04-28T15:33:42.710Z,21.53
2018-04-28T15:38:45.232Z,19.95
2018-04-28T15:43:47.748Z,17.34
2018-04-28T15:48:50.235Z,16.91
2018-04-28T15:53:52.702Z,17.42
2018-04-28T15:58:55.160Z,16.39
2018-04-28T16:03:57.619Z,16.68
2018-04-28T16:09:00.100Z,16.14
2018-04-28T16:14:02.548Z,17.63
2018-04-28T16:19:05.023Z,18.42
2018-04-28T16:24:07.480Z,18.15
2018-04-28T16:29:09.963Z,18.89
2018-04-28T16:34:12.480Z,18.64
2018-04-28T16:39:14.952Z,20.29
2018-04-28T16:44:17.501Z,20.22
2018-04-28T16:49:19.975Z,20.60
2018-04-28T16:54:22.476Z,20.96
2018-04-28T16:59:39.161Z,20.73
2018-04-28T17:04:42.773Z,22.31
2018-04-28T17:09:45.435Z,22.13
2018-04-28T17:14:55.893Z,22.38
2018-04-28T17:19:58.875Z,22.93
2018-04-28T17:25:01.412Z,23.71
2018-04-28T17:30:03.832Z,23.81
2018-04-28T17:35:06.442Z,24.44
2018-04-28T17:40:09.515Z,23.77
2018-04-28T17:45:12.140Z,24.27
2018-04-28T17:50:14.682Z,24.26
2018-04-28T17:55:17.159Z,24.61
2018-04-28T18:00:20.420Z,26.67
2018-04-28T18:05:22.899Z,26.70
2018-04-28T18:10:25.380Z,27.11
2018-04-28T18:15:27.894Z,27.29
2018-04-28T18:20:30.416Z,28.72
2018-04-28T18:25:32.981Z,29.37
2018-04-28T18:30:35.519Z,29.81
2018-04-28T18:35:38.007Z,30.08
2018-04-28T18:40:41.252Z,31.08
2018-04-28T18:45:43.922Z,30.89
2018-04-28T18:50:46.511Z,31.32
2018-04-28T18:55:49.197Z,29.70
2018-04-28T19:00:55.836Z,30.44
2018-04-28T19:05:59.707Z,30.12
2018-04-28T19:11:03.070Z,31.25
2018-04-28T19:16:07.432Z,30.28
2018-04-28T19:21:12.986Z,30.05
2018-04-28T19:26:18.144Z,31.26
2018-04-28T19:31:22.428Z,30.88
2018-04-28T19:36:24.900Z,31.13
2018-04-28T19:41:32.889Z,33.96
2018-04-28T19:46:35.915Z,33.70
2018-04-28T19:51:39.586Z,33.79
2018-04-28T19:56:44.083Z,34.72
2018-04-28T20:01:48.231Z,35.63
2018-04-28T20:06:51.712Z,35.06
2018-04-28T20:11:54.623Z,35.88
2018-04-28T20:16:57.670Z,37.10
2018-04-28T20:22:12.000Z,37.74
2018-04-28T20:27:14.862Z,38.19
2018-04-28T20:32:17.960Z,39.02
2018-04-28T20:37:20.940Z,40.67
2018-04-28T20:42:23.546Z,42.56
2018-04-28T20:47:28.632Z,43.09
2018-04-28T20:52:31.332Z,43.99
2018-04-28T20:57:33.809Z,44.90
2018-04-28T21:02:36.310Z,45.78
2018-04-28T21:07:38.815Z,46.00
2018-04-28T21:12:41.307Z,45.87
2018-04-28T21:17:43.870Z,47.14
2018-04-28T21:22:46.343Z,48.59
2018-04-28T21:27:48.800Z,48.53
2018-04-28T21:32:51.287Z,49.15
2018-04-28T21:37:53.846Z,49.82
2018-04-28T21:42:56.340Z,50.61
2018-04-28T21:47:58.826Z,51.18
2018-04-28T21:53:01.387Z,51.31
2018-04-28T21:58:03.889Z,52.24
2018-04-28T22:03:06.335Z,53.39
2018-04-28T22:08:08.838Z,53.83
2018-04-28T22:13:11.363Z,53.47
2018-04-28T22:18:13.897Z,53.70
2018-04-28T22:23:16.452Z,54.11
2018-04-28T22:28:18.982Z,54.43
2018-04-28T22:33:21.538Z,54.62
2018-04-28T22:38:24.029Z,54.99
2018-04-28T22:43:26.501Z,55.46
2018-04-28T22:48:28.977Z,55.42
2018-04-28T22:53:32.302Z,55.91
2018-04-28T22:58:34.780Z,56.57
2018-04-28T23:03:37.318Z,56.87
2018-04-28T23:08:39.792Z,56.88
2018-04-28T23:13:42.305Z,57.33
2018-04-28T23:18:44.902Z,57.83
2018-04-28T23:23:47.497Z,58.07
2018-04-28T23:28:49.982Z,57.62
2018-04-28T23:33:52.466Z,58.44
2018-04-28T23:38:54.943Z,59.16
2018-04-28T23:43:57.403Z,59.60
2018-04-28T23:48:59.870Z,60.95
2018-04-28T23:54:02.448Z,61.94
2018-04-28T23:59:04.968Z,61.67
